createdAt,value
2019-01-20T00:02:23.011Z,55.89
2019-01-20T00:04:55.021Z,55.76
2019-01-20T00:07:27.116Z,55.70
2019-01-20T00:09:59.069Z,55.74
2019-01-20T00:12:31.159Z,56.04
2019-01-20T00:15:01.800Z,56.34
2019-01-20T00:17:33.885Z,56.27
2019-01-20T00:20:06.797Z,56.05
2019-01-20T00:22:38.943Z,55.72
2019-01-20T00:25:11.368Z,55.70
2019-01-20T00:27:43.667Z,55.34
2019-01-20T00:30:15.890Z,55.34
2019-01-20T00:32:47.949Z,55.67
2019-01-20T00:35:19.957Z,55.40
2019-01-20T00:37:51.987Z,55.45
2019-01-20T00:40:24.125Z,55.37
2019-01-20T00:42:56.280Z,55.50
2019-01-20T00:45:26.999Z,55.72
2019-01-20T00:47:58.946Z,55.70
2019-01-20T00:50:30.943Z,56.14
2019-01-20T00:53:03.104Z,56.14
2019-01-20T00:55:35.111Z,55.85
2019-01-20T00:58:07.426Z,55.98
2019-01-20T01:00:38.058Z,55.99
2019-01-20T01:03:10.279Z,56.34
2019-01-20T01:05:40.876Z,56.65
2019-01-20T01:08:13.354Z,56.72
2019-01-20T01:10:44.322Z,56.48
2019-01-20T01:13:16.294Z,56.51
2019-01-20T01:15:48.319Z,56.71
2019-01-20T01:18:20.319Z,56.34
2019-01-20T01:20:50.871Z,56.26
2019-01-20T01:23:23.291Z,56.40
2019-01-20T01:25:54.100Z,56.38
2019-01-20T01:28:26.672Z,56.47
2019-01-20T01:30:58.923Z,56.51
2019-01-20T01:33:31.304Z,56.79
2019-01-20T01:36:03.111Z,56.74
2019-01-20T01:38:37.644Z,56.61
2019-01-20T01:41:09.855Z,56.73
2019-01-20T01:43:44.567Z,56.81
2019-01-20T01:46:23.637Z,56.83
2019-01-20T01:48:56.295Z,56.74
2019-01-20T01:51:27.868Z,56.48
2019-01-20T01:53:59.956Z,56.35
2019-01-20T01:56:38.320Z,56.55
2019-01-20T01:59:10.339Z,56.54
2019-01-20T02:01:40.783Z,56.80
2019-01-20T02:04:15.641Z,56.93
2019-01-20T02:06:48.679Z,57.47
2019-01-20T02:09:20.887Z,57.47
2019-01-20T02:11:52.955Z,57.25
2019-01-20T02:14:25.076Z,57.32
2019-01-20T02:16:57.191Z,57.28
2019-01-20T02:19:29.318Z,57.58
2019-01-20T02:22:01.580Z,57.74
2019-01-20T02:24:33.751Z,57.72
2019-01-20T02:27:06.294Z,57.78
2019-01-20T02:29:36.873Z,57.91
2019-01-20T02:32:09.114Z,58.40
2019-01-20T02:34:41.296Z,58.42
2019-01-20T02:37:11.873Z,58.09
2019-01-20T02:39:43.894Z,58.09
2019-01-20T02:42:16.121Z,58.28
2019-01-20T02:44:48.073Z,58.27
2019-01-20T02:47:20.266Z,58.34
2019-01-20T02:49:50.849Z,58.30
2019-01-20T02:52:22.959Z,58.57
2019-01-20T02:54:54.957Z,58.81
2019-01-20T02:57:26.961Z,59.22
2019-01-20T02:59:58.953Z,59.22
2019-01-20T03:02:30.976Z,59.24
2019-01-20T03:05:03.247Z,59.17
2019-01-20T03:07:33.880Z,58.81
2019-01-20T03:10:06.728Z,59.07
2019-01-20T03:12:38.877Z,59.44
2019-01-20T03:15:11.760Z,59.53
2019-01-20T03:17:43.901Z,59.40
2019-01-20T03:20:22.322Z,59.36
2019-01-20T03:22:52.859Z,59.50
2019-01-20T03:25:25.355Z,59.67
2019-01-20T03:27:57.350Z,59.99
2019-01-20T03:30:27.915Z,59.99
2019-01-20T03:33:00.097Z,59.83
2019-01-20T03:35:32.131Z,59.38
2019-01-20T03:38:02.806Z,59.29
2019-01-20T03:40:35.128Z,59.26
2019-01-20T03:43:07.284Z,59.01
2019-01-20T03:45:40.296Z,58.93
2019-01-20T03:48:10.860Z,58.65
2019-01-20T03:50:42.932Z,58.49
2019-01-20T03:53:14.954Z,58.78
2019-01-20T03:55:46.951Z,59.38
2019-01-20T03:58:18.954Z,59.77
2019-01-20T04:00:51.147Z,59.54
2019-01-20T04:03:23.247Z,59.39
2019-01-20T04:05:53.871Z,59.26
2019-01-20T04:08:26.092Z,59.46
2019-01-20T04:10:58.078Z,59.01
2019-01-20T04:13:30.133Z,59.01
2019-01-20T04:16:02.284Z,59.20
2019-01-20T04:18:32.875Z,59.76
2019-01-20T04:21:04.945Z,59.76
2019-01-20T04:23:36.954Z,59.34
2019-01-20T04:26:09.126Z,59.34
2019-01-20T04:28:41.297Z,59.56
2019-01-20T04:31:13.162Z,59.48
2019-01-20T04:33:45.295Z,59.54
2019-01-20T04:36:15.874Z,58.78
2019-01-20T04:38:47.963Z,59.11
2019-01-20T04:41:19.948Z,59.11
2019-01-20T04:43:52.105Z,59.00
2019-01-20T04:46:24.284Z,59.35
2019-01-20T04:48:54.874Z,59.58
2019-01-20T04:51:26.958Z,59.68
2019-01-20T04:56:40.117Z,59.40
2019-01-20T04:59:12.296Z,59.40
2019-01-20T05:01:42.863Z,59.37
2019-01-20T05:04:14.962Z,59.65
2019-01-20T05:06:47.143Z,59.57
2019-01-20T05:09:19.299Z,59.60
2019-01-20T05:11:50.103Z,59.72
2019-01-20T05:14:22.342Z,59.86
2019-01-20T05:16:53.070Z,59.85
2019-01-20T05:19:25.081Z,60.05
2019-01-20T05:21:57.283Z,60.28
2019-01-20T05:24:28.125Z,60.25
2019-01-20T05:27:00.289Z,60.25
2019-01-20T05:29:30.868Z,60.54
2019-01-20T05:32:03.078Z,60.45
2019-01-20T05:34:35.283Z,60.41
2019-01-20T05:37:06.286Z,60.59
2019-01-20T05:39:37.047Z,60.70
2019-01-20T05:42:09.092Z,60.63
2019-01-20T05:44:41.289Z,60.62
2019-01-20T05:47:12.010Z,60.67
2019-01-20T05:49:44.189Z,60.93
2019-01-20T05:52:16.335Z,60.81
2019-01-20T05:54:46.993Z,60.74
2019-01-20T05:57:18.953Z,60.90
2019-01-20T05:59:50.947Z,60.96
2019-01-20T06:02:22.964Z,61.00
2019-01-20T06:04:55.334Z,61.09
2019-01-20T06:07:27.295Z,61.42
2019-01-20T06:09:58.014Z,61.56
2019-01-20T06:12:30.132Z,61.51
2019-01-20T06:15:02.336Z,61.71
2019-01-20T06:17:34.271Z,61.62
2019-01-20T06:20:05.296Z,61.71
2019-01-20T06:22:35.865Z,61.60
2019-01-20T06:25:08.685Z,61.87
2019-01-20T06:27:40.875Z,61.68
2019-01-20T06:30:34.955Z,61.79
2019-01-20T06:33:07.096Z,61.70
2019-01-20T06:35:39.284Z,61.23
2019-01-20T06:38:09.871Z,61.53
2019-01-20T06:40:42.112Z,61.53
2019-01-20T06:43:14.323Z,61.32
2019-01-20T06:45:46.281Z,61.26
2019-01-20T06:48:16.806Z,61.23
2019-01-20T06:50:48.954Z,61.23
2019-01-20T06:53:20.963Z,61.23
2019-01-20T06:55:53.142Z,61.35
2019-01-20T06:58:25.276Z,61.46
2019-01-20T07:00:55.854Z,61.81
2019-01-20T07:03:28.049Z,62.34
2019-01-20T07:06:00.282Z,62.27
2019-01-20T07:08:31.072Z,62.27
2019-01-20T07:11:03.280Z,64.26
2019-01-20T07:13:33.702Z,64.28
2019-01-20T07:16:05.941Z,63.54
2019-01-20T07:18:38.139Z,62.53
2019-01-20T07:21:10.135Z,61.81
2019-01-20T07:23:42.277Z,61.13
2019-01-20T07:26:12.863Z,61.13
2019-01-20T07:28:45.118Z,61.02
2019-01-20T07:31:17.277Z,60.80
2019-01-20T07:33:48.125Z,60.86
2019-01-20T07:36:20.328Z,60.80
2019-01-20T07:38:51.021Z,60.68
2019-01-20T07:41:22.958Z,60.67
2019-01-20T07:43:55.254Z,60.67
2019-01-20T07:46:25.871Z,60.28
2019-01-20T07:48:57.948Z,60.28
2019-01-20T07:51:30.108Z,60.39
2019-01-20T07:54:02.271Z,60.07
2019-01-20T07:56:32.863Z,59.78
2019-01-20T07:59:04.898Z,59.38
2019-01-20T08:01:37.127Z,58.96
2019-01-20T08:04:09.121Z,58.80
2019-01-20T08:06:42.299Z,58.91
2019-01-20T08:09:13.309Z,58.46
2019-01-20T08:11:45.290Z,57.41
2019-01-20T08:14:17.303Z,56.56
2019-01-20T08:16:49.724Z,56.56
2019-01-20T08:19:22.382Z,56.17
2019-01-20T08:21:54.935Z,55.20
2019-01-20T08:24:27.120Z,54.53
2019-01-20T08:26:59.279Z,54.41
2019-01-20T08:29:29.870Z,54.13
2019-01-20T08:32:02.104Z,53.68
2019-01-20T08:34:33.948Z,52.75
2019-01-20T08:37:06.112Z,52.11
2019-01-20T08:39:36.864Z,52.29
2019-01-20T08:42:08.945Z,52.61
2019-01-20T08:44:44.673Z,52.76
2019-01-20T08:47:54.929Z,52.25
2019-01-20T08:50:26.949Z,51.59
2019-01-20T08:52:58.951Z,51.35
2019-01-20T08:55:30.936Z,51.48
2019-01-20T08:58:03.925Z,51.90
2019-01-20T09:00:35.947Z,51.43
2019-01-20T09:03:08.086Z,51.42
2019-01-20T09:05:39.950Z,50.65
2019-01-20T09:08:12.587Z,49.88
2019-01-20T09:10:44.744Z,49.37
2019-01-20T09:13:18.560Z,49.37
2019-01-20T09:15:51.918Z,49.07
2019-01-20T09:18:25.284Z,47.95
2019-01-20T09:20:57.677Z,46.80
2019-01-20T09:23:30.185Z,45.22
2019-01-20T09:26:03.046Z,44.25
2019-01-20T09:28:35.527Z,44.70
2019-01-20T09:31:07.774Z,44.70
2019-01-20T09:33:39.940Z,45.05
2019-01-20T09:36:13.258Z,44.63
2019-01-20T09:38:44.910Z,43.96
2019-01-20T09:41:18.466Z,43.96
2019-01-20T09:43:51.294Z,41.49
2019-01-20T09:46:23.896Z,41.49
2019-01-20T09:48:56.282Z,41.46
2019-01-20T09:51:27.432Z,40.58
2019-01-20T09:54:00.756Z,40.47
2019-01-20T09:56:32.939Z,40.12
2019-01-20T09:59:05.604Z,40.21
2019-01-20T10:01:37.747Z,39.81
2019-01-20T10:04:09.933Z,40.52
2019-01-20T10:06:41.944Z,40.55
2019-01-20T10:09:14.071Z,40.68
2019-01-20T10:11:46.262Z,41.34
2019-01-20T10:14:17.009Z,41.85
2019-01-20T10:16:48.944Z,42.31
2019-01-20T10:19:20.942Z,43.08
2019-01-20T10:21:53.116Z,43.63
2019-01-20T10:24:25.254Z,44.10
2019-01-20T10:26:55.997Z,44.29
2019-01-20T10:29:27.940Z,44.41
2019-01-20T10:31:59.943Z,44.84
2019-01-20T10:34:32.577Z,45.20
2019-01-20T10:37:05.750Z,45.71
2019-01-20T10:39:37.946Z,46.07
2019-01-20T10:42:10.404Z,46.20
2019-01-20T10:44:42.315Z,47.00
2019-01-20T10:47:13.051Z,47.00
2019-01-20T10:49:45.071Z,47.12
2019-01-20T10:52:17.721Z,47.30
2019-01-20T10:54:49.893Z,47.39
2019-01-20T10:57:22.679Z,47.55
2019-01-20T10:59:54.945Z,47.61
2019-01-20T11:02:26.936Z,47.75
2019-01-20T11:04:59.279Z,48.26
2019-01-20T11:07:29.888Z,48.17
2019-01-20T11:10:02.125Z,48.84
2019-01-20T11:12:32.884Z,48.81
2019-01-20T11:15:05.277Z,49.64
2019-01-20T11:17:35.773Z,49.45
2019-01-20T11:20:10.707Z,49.46
2019-01-20T11:22:42.925Z,49.46
2019-01-20T11:25:19.690Z,49.11
2019-01-20T11:27:51.946Z,49.17
2019-01-20T11:32:29.680Z,49.14
2019-01-20T11:35:01.953Z,49.39
2019-01-20T11:37:34.065Z,49.27
2019-01-20T11:40:08.276Z,49.47
2019-01-20T11:42:38.996Z,49.69
2019-01-20T11:45:21.670Z,49.87
2019-01-20T11:47:53.907Z,49.84
2019-01-20T11:50:26.346Z,49.28
2019-01-20T11:52:58.330Z,49.28
2019-01-20T11:55:30.662Z,49.86
2019-01-20T11:58:02.927Z,49.86
2019-01-20T12:00:39.858Z,50.26
2019-01-20T12:03:12.224Z,50.17
2019-01-20T12:05:45.073Z,50.48
2019-01-20T12:08:15.677Z,50.27
2019-01-20T12:10:47.765Z,49.94
2019-01-20T12:13:27.767Z,50.48
2019-01-20T12:15:59.940Z,50.45
2019-01-20T12:18:31.924Z,50.53
2019-01-20T12:21:04.264Z,50.82
2019-01-20T12:23:34.945Z,50.82
2019-01-20T12:26:07.269Z,50.87
2019-01-20T12:28:37.695Z,50.77
2019-01-20T12:31:09.947Z,50.68
2019-01-20T12:33:41.936Z,50.86
2019-01-20T12:36:13.944Z,50.74
2019-01-20T12:38:46.121Z,50.76
2019-01-20T12:41:18.262Z,50.76
2019-01-20T12:43:49.111Z,50.34
2019-01-20T12:46:19.868Z,50.78
2019-01-20T12:48:51.949Z,51.20
2019-01-20T12:51:28.479Z,51.17
2019-01-20T12:53:57.943Z,51.23
2019-01-20T12:56:30.153Z,51.10
2019-01-20T12:59:02.272Z,51.24
2019-01-20T13:01:32.889Z,51.46
2019-01-20T13:06:48.130Z,51.21
2019-01-20T13:09:20.275Z,50.86
2019-01-20T13:11:50.851Z,51.05
2019-01-20T13:14:23.281Z,51.52
2019-01-20T13:16:53.859Z,51.28
2019-01-20T13:19:25.944Z,51.50
2019-01-20T13:21:58.111Z,51.59
2019-01-20T13:24:30.276Z,51.23
2019-01-20T13:27:00.866Z,51.32
2019-01-20T13:29:32.920Z,51.17
2019-01-20T13:32:04.944Z,51.38
2019-01-20T13:34:36.935Z,51.67
2019-01-20T13:37:09.254Z,51.62
2019-01-20T13:39:39.839Z,51.39
2019-01-20T13:42:11.938Z,51.71
2019-01-20T13:44:46.357Z,51.96
2019-01-20T13:47:20.986Z,51.97
2019-01-20T13:49:53.612Z,52.04
2019-01-20T13:52:26.340Z,52.14
2019-01-20T13:54:57.668Z,51.98
2019-01-20T13:57:29.731Z,52.00
2019-01-20T14:00:02.078Z,52.15
2019-01-20T14:02:34.395Z,51.98
2019-01-20T14:05:06.953Z,52.16
2019-01-20T14:07:39.261Z,52.16
2019-01-20T14:10:11.580Z,51.74
2019-01-20T14:12:43.914Z,51.52
2019-01-20T14:15:16.984Z,51.52
2019-01-20T14:17:49.336Z,51.24
2019-01-20T14:20:23.275Z,51.35
2019-01-20T14:22:54.134Z,51.35
2019-01-20T14:25:27.446Z,51.70
2019-01-20T14:27:59.951Z,51.89
2019-01-20T14:30:33.266Z,52.16
2019-01-20T14:33:04.136Z,52.16
2019-01-20T14:35:36.288Z,52.58
2019-01-20T14:38:07.629Z,52.58
2019-01-20T14:40:39.946Z,52.17
2019-01-20T14:43:12.278Z,52.04
2019-01-20T14:45:43.013Z,52.02
2019-01-20T14:48:15.302Z,52.16
2019-01-20T14:50:46.096Z,52.54
2019-01-20T14:53:18.285Z,52.48
2019-01-20T14:55:49.077Z,52.55
2019-01-20T14:58:21.351Z,52.63
2019-01-20T15:00:53.712Z,52.68
2019-01-20T15:03:26.111Z,52.58
2019-01-20T15:05:56.866Z,52.58
2019-01-20T15:08:29.146Z,52.82
2019-01-20T15:11:01.350Z,52.91
2019-01-20T15:13:33.304Z,53.22
2019-01-20T15:16:04.021Z,53.22
2019-01-20T15:18:36.260Z,53.09
2019-01-20T15:21:07.012Z,53.16
2019-01-20T15:23:41.287Z,53.16
2019-01-20T15:26:12.272Z,53.28
2019-01-20T15:28:43.055Z,53.27
2019-01-20T15:31:17.306Z,53.30
2019-01-20T15:33:48.283Z,53.22
2019-01-20T15:36:19.257Z,53.27
2019-01-20T15:38:50.287Z,53.54
2019-01-20T15:41:21.299Z,53.64
2019-01-20T15:43:53.296Z,53.67
2019-01-20T15:46:25.810Z,54.11
2019-01-20T15:48:58.306Z,54.11
2019-01-20T15:51:30.722Z,54.17
2019-01-20T15:54:08.334Z,54.63
2019-01-20T15:56:41.316Z,54.95
2019-01-20T15:59:13.737Z,55.07
2019-01-20T16:01:46.309Z,55.17
2019-01-20T16:04:17.299Z,55.70
2019-01-20T16:06:48.221Z,56.12
2019-01-20T16:09:19.341Z,56.09
2019-01-20T16:11:51.943Z,56.27
2019-01-20T16:14:24.303Z,56.68
2019-01-20T16:16:56.346Z,56.50
2019-01-20T16:19:26.992Z,56.64
2019-01-20T16:22:00.312Z,56.90
2019-01-20T16:24:32.690Z,57.14
2019-01-20T16:27:05.283Z,57.26
2019-01-20T16:29:36.323Z,57.26
2019-01-20T16:32:08.657Z,57.26
2019-01-20T16:34:41.329Z,57.30
2019-01-20T16:37:13.966Z,56.92
2019-01-20T16:39:46.329Z,56.92
2019-01-20T16:42:19.282Z,56.90
2019-01-20T16:44:50.252Z,57.25
2019-01-20T16:47:21.131Z,57.50
2019-01-20T16:49:52.119Z,57.71
2019-01-20T16:52:23.100Z,57.85
2019-01-20T16:54:55.592Z,57.65
2019-01-20T16:57:27.949Z,57.40
2019-01-20T17:00:00.418Z,57.22
2019-01-20T17:02:32.819Z,57.54
2019-01-20T17:05:05.585Z,57.54
2019-01-20T17:07:38.150Z,57.66
2019-01-20T17:10:15.947Z,57.85
2019-01-20T17:12:48.126Z,57.91
2019-01-20T17:15:26.733Z,58.13
2019-01-20T17:18:00.401Z,58.26
2019-01-20T17:20:33.480Z,58.02
2019-01-20T17:23:06.270Z,57.86
2019-01-20T17:25:37.233Z,57.86
2019-01-20T17:28:09.990Z,57.56
2019-01-20T17:30:43.130Z,58.05
2019-01-20T17:33:16.710Z,58.05
2019-01-20T17:35:49.273Z,57.90
2019-01-20T17:38:20.098Z,58.03
2019-01-20T17:40:52.493Z,58.37
2019-01-20T17:43:24.945Z,58.34
2019-01-20T17:45:57.307Z,58.39
2019-01-20T17:48:28.278Z,58.36
2019-01-20T17:50:58.869Z,58.34
2019-01-20T17:53:30.941Z,58.33
2019-01-20T17:56:03.120Z,58.15
2019-01-20T17:58:35.146Z,57.97
2019-01-20T18:01:07.428Z,57.83
2019-01-20T18:03:39.711Z,57.75
2019-01-20T18:06:11.776Z,57.83
2019-01-20T18:08:43.955Z,58.06
2019-01-20T18:11:16.280Z,58.56
2019-01-20T18:14:12.101Z,58.48
2019-01-20T18:16:42.916Z,58.48
2019-01-20T18:19:15.256Z,58.34
2019-01-20T18:21:46.106Z,58.20
2019-01-20T18:24:18.270Z,58.31
2019-01-20T18:26:49.269Z,58.47
2019-01-20T18:29:21.403Z,58.64
2019-01-20T18:31:53.693Z,58.94
2019-01-20T18:34:25.864Z,59.07
2019-01-20T18:36:58.123Z,59.17
2019-01-20T18:39:30.418Z,59.30
2019-01-20T18:42:02.945Z,59.49
2019-01-20T18:44:35.286Z,59.61
2019-01-20T18:47:07.389Z,59.59
2019-01-20T18:49:39.639Z,59.45
2019-01-20T18:52:12.106Z,59.45
2019-01-20T18:54:44.448Z,59.58
2019-01-20T18:57:16.905Z,60.31
2019-01-20T18:59:49.122Z,60.31
2019-01-20T19:02:21.299Z,60.73
2019-01-20T19:04:53.275Z,60.91
2019-01-20T19:07:23.893Z,60.76
2019-01-20T19:09:56.116Z,60.64
2019-01-20T19:12:28.267Z,60.44
2019-01-20T19:14:58.999Z,60.39
2019-01-20T19:17:31.142Z,60.73
2019-01-20T19:20:01.873Z,60.68
2019-01-20T19:22:34.126Z,60.76
2019-01-20T19:25:06.724Z,60.99
2019-01-20T19:27:39.102Z,60.99
2019-01-20T19:30:16.503Z,61.19
2019-01-20T19:32:48.681Z,61.53
2019-01-20T19:35:21.321Z,61.53
2019-01-20T19:37:53.292Z,61.59
2019-01-20T19:40:24.035Z,61.66
2019-01-20T19:42:56.303Z,61.72
2019-01-20T19:45:28.714Z,61.73
2019-01-20T19:48:01.112Z,61.71
2019-01-20T19:50:31.998Z,61.68
2019-01-20T19:53:04.293Z,61.71
2019-01-20T19:55:35.276Z,61.64
2019-01-20T19:58:06.282Z,61.64
2019-01-20T20:00:36.796Z,61.47
2019-01-20T20:03:09.103Z,61.47
2019-01-20T20:05:41.276Z,61.66
2019-01-20T20:08:12.006Z,61.76
2019-01-20T20:10:44.284Z,61.62
2019-01-20T20:13:15.009Z,61.58
2019-01-20T20:15:47.149Z,61.64
2019-01-20T20:18:19.299Z,61.74
2019-01-20T20:20:50.245Z,62.10
2019-01-20T20:23:21.092Z,61.86
2019-01-20T20:25:53.251Z,61.82
2019-01-20T20:28:23.864Z,61.64
2019-01-20T20:30:56.127Z,61.34
2019-01-20T20:33:26.815Z,61.68
2019-01-20T20:35:59.123Z,61.79
2019-01-20T20:38:31.263Z,62.01
2019-01-20T20:41:01.864Z,61.77
2019-01-20T20:43:34.275Z,61.65
2019-01-20T20:46:04.867Z,61.81
2019-01-20T20:48:37.122Z,61.81
2019-01-20T20:51:09.316Z,61.72
2019-01-20T20:53:41.278Z,61.70
2019-01-20T20:56:12.020Z,61.78
2019-01-20T20:58:44.269Z,61.91
2019-01-20T21:01:14.692Z,62.01
2019-01-20T21:03:46.870Z,61.90
2019-01-20T21:06:18.935Z,61.71
2019-01-20T21:08:51.166Z,61.49
2019-01-20T21:11:22.067Z,61.46
2019-01-20T21:13:54.276Z,61.47
2019-01-20T21:16:24.889Z,61.58
2019-01-20T21:18:57.090Z,61.78
2019-01-20T21:21:29.307Z,61.66
2019-01-20T21:24:00.094Z,61.61
2019-01-20T21:26:32.274Z,61.69
2019-01-20T21:29:02.791Z,61.69
2019-01-20T21:31:35.370Z,61.66
2019-01-20T21:34:06.269Z,61.75
2019-01-20T21:36:36.853Z,61.90
2019-01-20T21:39:11.267Z,62.08
2019-01-20T21:41:42.072Z,61.96
2019-01-20T21:44:14.268Z,61.79
2019-01-20T21:46:45.415Z,61.87
2019-01-20T21:49:17.658Z,62.16
2019-01-20T21:51:49.769Z,62.16
2019-01-20T21:54:21.943Z,62.34
2019-01-20T21:56:54.283Z,62.38
2019-01-20T21:59:24.662Z,62.51
2019-01-20T22:01:56.897Z,62.54
2019-01-20T22:04:28.940Z,62.30
2019-01-20T22:07:01.181Z,62.07
2019-01-20T22:09:33.279Z,62.07
2019-01-20T22:12:04.021Z,62.10
2019-01-20T22:14:36.190Z,62.29
2019-01-20T22:17:08.270Z,62.38
2019-01-20T22:19:38.915Z,62.28
2019-01-20T22:22:11.278Z,62.26
2019-01-20T22:24:41.789Z,62.13
2019-01-20T22:27:14.092Z,62.08
2019-01-20T22:29:46.254Z,62.13
2019-01-20T22:32:16.859Z,62.31
2019-01-20T22:34:49.274Z,62.31
2019-01-20T22:37:19.922Z,62.08
2019-01-20T22:39:52.079Z,62.29
2019-01-20T22:42:24.390Z,62.66
2019-01-20T22:44:56.320Z,62.93
2019-01-20T22:49:25.689Z,62.85
2019-01-20T22:51:57.795Z,62.48
2019-01-20T22:54:29.944Z,62.35
2019-01-20T22:57:01.948Z,61.78
2019-01-20T22:59:34.279Z,61.75
2019-01-20T23:02:05.497Z,61.76
2019-01-20T23:04:37.687Z,61.64
2019-01-20T23:07:10.013Z,61.75
2019-01-20T23:09:42.277Z,61.73
2019-01-20T23:12:12.847Z,61.71
2019-01-20T23:14:45.065Z,61.74
2019-01-20T23:17:17.268Z,61.80
2019-01-20T23:19:49.047Z,62.05
2019-01-20T23:22:21.274Z,62.18
2019-01-20T23:24:51.710Z,62.33
2019-01-20T23:27:23.947Z,62.16
2019-01-20T23:29:56.131Z,61.90
2019-01-20T23:32:28.420Z,62.04
2019-01-20T23:35:00.599Z,62.37
2019-01-20T23:37:32.689Z,62.69
2019-01-20T23:40:04.903Z,62.83
2019-01-20T23:42:37.283Z,62.42
2019-01-20T23:45:09.268Z,62.06
2019-01-20T23:47:39.996Z,62.08
2019-01-20T23:50:12.776Z,62.11
2019-01-20T23:52:45.306Z,62.03
2019-01-20T23:55:17.645Z,61.81
2019-01-20T23:57:49.950Z,61.80
